WetterOnline ( https://www.wetteronline.ch )

Wetter aktuell Kiel

Aktuelles Wetter: Kiel/Holtenau (27m)

6-stündlich | Neueste Meldungen
Ortszeit Temperatur Wetter
Mi, 12.08. 2:00 17.6° C fast wolkenlos
Di, 11.08. 20:00 22.5° C wolkenlos
Di, 11.08. 14:00 28.1° C wolkenlos
Di, 11.08. 8:00 20.3° C wolkenlos
Di, 11.08. 2:00 19.3° C wolkenlos
Mo, 10.08. 20:00 24.8° C wolkenlos
Mo, 10.08. 14:00 25.9° C leicht bewölkt
Mo, 10.08. 8:00 21.6° C wolkenlos
Ortszeit Temperatur Wetter
Mi, 12.08. 2:30 17.8° C leicht bewölkt
Mi, 12.08. 2:20 17.8° C leicht bewölkt
Mi, 12.08. 2:10 17.4° C fast wolkenlos
Mi, 12.08. 2:00 17.6° C fast wolkenlos
Mi, 12.08. 1:50 17.6° C fast wolkenlos
Mi, 12.08. 1:40 17.8° C fast wolkenlos
Mi, 12.08. 1:30 17.9° C leicht bewölkt
Mi, 12.08. 1:00 18.0° C wolkenlos
Mi, 12.08. 0:30 17.8° C fast wolkenlos
Mi, 12.08. 0:00 18.5° C wolkenlos
Di, 11.08. 23:30 18.9° C wolkenlos
Di, 11.08. 23:00 18.8° C wolkenlos
Ortszeit Relative Feuchte Sichtweite
Mi, 12.08. 2:00 83% 60 km
Di, 11.08. 20:00 67% 55 km
Di, 11.08. 14:00 59% 50 km
Di, 11.08. 8:00 91% 26 km
Di, 11.08. 2:00 91% 17 km
Mo, 10.08. 20:00 66% 45 km
Mo, 10.08. 14:00 63% 35 km
Mo, 10.08. 8:00 80% 40 km
Ortszeit Relative Feuchte Sichtweite
Mi, 12.08. 2:30 84% 60 km
Mi, 12.08. 2:20 84% -
Mi, 12.08. 2:10 85% -
Mi, 12.08. 2:00 83% 60 km
Mi, 12.08. 1:50 83% -
Mi, 12.08. 1:40 82% -
Mi, 12.08. 1:30 81% >70 km
Mi, 12.08. 1:00 82% >70 km
Mi, 12.08. 0:30 84% 60 km
Mi, 12.08. 0:00 82% 55 km
Di, 11.08. 23:30 80% 60 km
Di, 11.08. 23:00 82% 65 km
Ortszeit Niederschlagsmenge Niederschlagsart
Mi, 12.08. 2:00 0.0 l/m2 in 6 Std. -
Di, 11.08. 20:00 0.0 l/m2 in 12 Std. -
Di, 11.08. 14:00 0.0 l/m2 in 6 Std. -
Di, 11.08. 8:00 0.0 l/m2 in 12 Std. -
Di, 11.08. 2:00 0.0 l/m2 in 6 Std. -
Mo, 10.08. 20:00 0.0 l/m2 in 12 Std. -
Mo, 10.08. 14:00 0.0 l/m2 in 6 Std. -
Mo, 10.08. 8:00 0.0 l/m2 in 12 Std. -
Ortszeit Niederschlagsmenge Niederschlagsart
Mi, 12.08. 2:30 0.0 l/m2 in 1 Std. -
Mi, 12.08. 2:20 keine Meldung -
Mi, 12.08. 2:10 keine Meldung -
Mi, 12.08. 2:00 0.0 l/m2 in 1 Std. -
Mi, 12.08. 1:50 keine Meldung -
Mi, 12.08. 1:40 keine Meldung -
Mi, 12.08. 1:30 0.0 l/m2 in 1 Std. -
Mi, 12.08. 1:00 0.0 l/m2 in 1 Std. -
Mi, 12.08. 0:30 0.0 l/m2 in 1 Std. -
Mi, 12.08. 0:00 0.0 l/m2 in 1 Std. -
Di, 11.08. 23:30 0.0 l/m2 in 1 Std. -
Di, 11.08. 23:00 0.0 l/m2 in 1 Std. -
Ortszeit Stärke Spitze Richtung
km/h Bft. km/h Grad Sektor
Mi, 12.08. 2:00 14 3 29 90° O
Di, 11.08. 20:00 20 4 37 70° O
Di, 11.08. 14:00 18 3 25 40° NO
Di, 11.08. 8:00 13 3 28 80° O
Di, 11.08. 2:00 11 2 30 70° O
Mo, 10.08. 20:00 17 3 33 60° NO
Mo, 10.08. 14:00 18 3 29 40° NO
Mo, 10.08. 8:00 13 3 20 60° NO
Ortszeit Stärke Spitze Richtung
km/h Bft. km/h Grad Sektor
Mi, 12.08. 2:30 15 3 20 90° O
Mi, 12.08. 2:20 15 3 - 90° O
Mi, 12.08. 2:10 14 3 - 90° O
Mi, 12.08. 2:00 14 3 22 90° O
Mi, 12.08. 1:50 14 3 - 90° O
Mi, 12.08. 1:40 18 3 - 80° O
Mi, 12.08. 1:30 14 3 22 80° O
Mi, 12.08. 1:00 14 3 18 80° O
Mi, 12.08. 0:30 11 2 14 70° O
Mi, 12.08. 0:00 11 2 18 70° O
Di, 11.08. 23:30 11 2 18 70° O
Di, 11.08. 23:00 11 2 22 70° O
Ortszeit Untergrenze Bedeckung Gattung
total tief tief mittel hoch
Mi, 12.08. 2:00 10500 m 1/8 0/8 - - -
Di, 11.08. 20:00 - 0/8 0/8 - - -
Di, 11.08. 14:00 - 0/8 0/8 - - -
Di, 11.08. 8:00 - 0/8 0/8 - - -
Di, 11.08. 2:00 - 0/8 0/8 - - -
Mo, 10.08. 20:00 - 0/8 0/8 - - -
Mo, 10.08. 14:00 9000 m 6/8 0/8 - - -
Mo, 10.08. 8:00 - 0/8 0/8 - - -
Ortszeit Bedeckungsgrad in Achtel und Wolkenuntergrenze
Mi, 12.08. 2:30 5(10500m)
Mi, 12.08. 2:20 5(10500m)
Mi, 12.08. 2:10 1(10500m)
Mi, 12.08. 2:00 1(10500m)
Mi, 12.08. 1:50 1(10500m)
Mi, 12.08. 1:40 1(10500m)
Mi, 12.08. 1:30 3(10500m)
Mi, 12.08. 1:00 keine Wolken
Mi, 12.08. 0:30 1(12000m)
Mi, 12.08. 0:00 keine Wolken
Di, 11.08. 23:30 keine Wolken
Di, 11.08. 23:00 keine Wolken
Ortszeit Luftdruck NN (hPa) Tendenz (hPa in 3 Std.)
Mi, 12.08. 2:00 1021 + 0,1
Di, 11.08. 20:00 1020 - 0,3
Di, 11.08. 14:00 1021 - 0,2
Di, 11.08. 8:00 1021 0,0
Di, 11.08. 2:00 1020 + 0,9
Mo, 10.08. 20:00 1019 + 0,5
Mo, 10.08. 14:00 1019 + 0,1
Mo, 10.08. 8:00 1019 - 0,1
Ortszeit Luftdruck NN (hPa) Tendenz (hPa in 3 Std.)
Mi, 12.08. 2:30 1021 0,0
Mi, 12.08. 2:20 1021 keine Meldung
Mi, 12.08. 2:10 1021 keine Meldung
Mi, 12.08. 2:00 1021 + 0,1
Mi, 12.08. 1:50 1021 keine Meldung
Mi, 12.08. 1:40 1021 keine Meldung
Mi, 12.08. 1:30 1022 + 0,4
Mi, 12.08. 1:00 1022 + 0,4
Mi, 12.08. 0:30 1022 + 0,6
Mi, 12.08. 0:00 1021 + 0,8
Di, 11.08. 23:30 1021 + 0,9
Di, 11.08. 23:00 1021 + 0,9
Ortszeit Schneehöhe (cm)
Mi, 12.08. 2:00 -
Di, 11.08. 20:00 -
Di, 11.08. 14:00 -
Di, 11.08. 8:00 -
Di, 11.08. 2:00 -
Mo, 10.08. 20:00 -
Mo, 10.08. 14:00 -
Mo, 10.08. 8:00 -
Ortszeit Schneehöhe (cm)
Mi, 12.08. 2:30 -
Mi, 12.08. 2:20 -
Mi, 12.08. 2:10 -
Mi, 12.08. 2:00 -
Mi, 12.08. 1:50 -
Mi, 12.08. 1:40 -
Mi, 12.08. 1:30 -
Mi, 12.08. 1:00 -
Mi, 12.08. 0:30 -
Mi, 12.08. 0:00 -
Di, 11.08. 23:30 -
Di, 11.08. 23:00 -
Link zu dieser Seite / Seite empfehlen

Das Wetter in ...